Time;durP1;ratioP1;P1;durP2;ratioP2;P2;SDS_P1;SDS_P2;PMS_P1;PMS_P2;Temp;Humidity;BMP_temperature;BMP_pressure;BME280_temperature;BME280_humidity;BME280_pressure;Samples;Min_cycle;Max_cycle;Signal;HPM_P1;HPM_P2
2022/08/14 00:01:50;;;;;;;6.45;4.07;;;22.50;52.10;;;;;;4982597;28;20031;-69
2022/08/14 00:04:15;;;;;;;6.95;3.75;;;22.30;52.40;;;;;;4980871;28;20035;-69
2022/08/14 00:06:41;;;;;;;9.18;4.00;;;22.20;52.80;;;;;;4982258;28;20035;-69
2022/08/14 00:09:07;;;;;;;6.82;3.83;;;22.10;53.20;;;;;;5018067;28;20255;-69
2022/08/14 00:11:33;;;;;;;8.88;4.18;;;22.10;53.50;;;;;;4986855;28;20505;-70
2022/08/14 00:14:00;;;;;;;6.80;4.03;;;22.10;53.90;;;;;;4983325;28;20034;-69
2022/08/14 00:16:26;;;;;;;8.38;4.00;;;22.10;54.20;;;;;;4977998;28;20031;-73
2022/08/14 00:18:52;;;;;;;9.40;4.13;;;22.00;54.60;;;;;;4984136;28;20386;-70
2022/08/14 00:21:17;;;;;;;7.75;4.00;;;21.90;54.70;;;;;;4986575;28;20030;-69
2022/08/14 00:23:43;;;;;;;7.22;4.10;;;21.90;55.00;;;;;;4997483;28;20034;-70
2022/08/14 00:26:09;;;;;;;7.82;4.10;;;21.80;55.30;;;;;;4985081;28;20070;-69
2022/08/14 00:28:35;;;;;;;7.05;4.10;;;21.70;55.50;;;;;;4985763;28;20038;-71
2022/08/14 00:31:01;;;;;;;7.70;4.60;;;21.70;55.70;;;;;;4996204;28;20114;-70
2022/08/14 00:33:27;;;;;;;7.25;4.18;;;21.70;55.90;;;;;;5002916;28;20060;-69
2022/08/14 00:35:54;;;;;;;7.28;3.95;;;21.60;56.00;;;;;;5001675;28;20042;-69
2022/08/14 00:38:20;;;;;;;7.45;3.80;;;21.60;56.00;;;;;;5016928;28;20356;-69
2022/08/14 00:40:47;;;;;;;7.25;4.13;;;21.50;56.50;;;;;;4984874;28;20508;-73
2022/08/14 00:43:14;;;;;;;7.03;3.85;;;21.50;56.50;;;;;;4984070;28;20077;-69
2022/08/14 00:45:40;;;;;;;6.63;3.70;;;21.50;56.60;;;;;;4977344;28;20030;-68
2022/08/14 00:48:06;;;;;;;8.13;4.30;;;21.50;56.60;;;;;;4989155;28;20042;-70
2022/08/14 00:50:32;;;;;;;8.90;5.35;;;21.60;56.60;;;;;;4980211;28;20045;-70
2022/08/14 00:52:59;;;;;;;9.50;4.47;;;21.40;56.10;;;;;;4984666;28;20387;-69
2022/08/14 00:55:27;;;;;;;8.60;4.70;;;21.30;56.00;;;;;;4987812;28;20022;-73
2022/08/14 01:00:39;;;;;;;7.03;4.72;;;21.30;56.40;;;;;;5005130;28;20040;-74
2022/08/14 01:03:06;;;;;;;7.93;5.13;;;21.30;56.30;;;;;;4999503;28;20113;-70
2022/08/14 01:05:33;;;;;;;10.90;5.10;;;21.30;56.20;;;;;;4974341;28;20514;-70
2022/08/14 01:07:59;;;;;;;10.52;5.00;;;21.20;56.20;;;;;;4984006;28;20038;-70
2022/08/14 01:10:49;;;;;;;8.18;4.97;;;21.20;56.60;;;;;;4984164;28;20025;-70
2022/08/14 01:13:15;;;;;;;7.47;4.75;;;21.20;56.80;;;;;;4984783;28;20046;-69
2022/08/14 01:15:51;;;;;;;8.40;5.57;;;21.20;56.80;;;;;;4994820;28;20041;-70
2022/08/14 01:21:02;;;;;;;7.78;5.10;;;21.10;57.10;;;;;;4990030;28;20041;-70
2022/08/14 01:23:28;;;;;;;9.70;5.68;;;21.00;57.00;;;;;;4986198;28;20242;-73
2022/08/14 01:25:54;;;;;;;10.05;5.65;;;21.00;57.10;;;;;;4997355;28;20026;-70
2022/08/14 01:28:21;;;;;;;8.43;5.43;;;21.00;57.50;;;;;;4993393;28;20397;-74
2022/08/14 01:30:48;;;;;;;7.82;5.72;;;20.90;57.70;;;;;;4988948;28;20049;-72
2022/08/14 01:33:15;;;;;;;11.48;6.15;;;20.90;57.80;;;;;;4997663;28;20129;-71
2022/08/14 01:35:45;;;;;;;9.35;5.70;;;20.80;57.90;;;;;;4983371;28;20147;-73
2022/08/14 01:38:13;;;;;;;12.68;6.00;;;20.70;57.90;;;;;;4998020;28;20034;-69
2022/08/14 01:40:39;;;;;;;9.23;6.45;;;20.70;57.60;;;;;;4984401;28;20110;-69
2022/08/14 01:43:14;;;;;;;8.02;6.32;;;20.60;57.50;;;;;;4976005;28;20039;-70
2022/08/14 01:45:40;;;;;;;8.80;6.40;;;20.60;57.50;;;;;;4992160;28;20030;-70
2022/08/14 01:48:07;;;;;;;8.35;6.25;;;20.60;57.40;;;;;;5000047;28;20034;-69
2022/08/14 01:50:33;;;;;;;9.52;6.70;;;20.60;57.40;;;;;;5004143;28;20030;-71
2022/08/14 01:52:59;;;;;;;11.18;7.00;;;20.60;56.80;;;;;;4993882;28;20027;-71
2022/08/14 01:55:30;;;;;;;11.95;7.22;;;20.60;56.80;;;;;;5002346;28;20030;-70
2022/08/14 01:57:57;;;;;;;14.13;7.70;;;20.60;56.90;;;;;;5002230;28;20112;-70
2022/08/14 02:00:23;;;;;;;10.70;7.40;;;20.60;56.60;;;;;;5005722;28;20101;-70
2022/08/14 02:02:48;;;;;;;10.38;7.57;;;20.50;56.70;;;;;;4994122;28;20037;-70
2022/08/14 02:05:14;;;;;;;8.88;6.80;;;20.50;56.60;;;;;;4997185;28;20031;-72
2022/08/14 02:07:42;;;;;;;9.48;7.70;;;20.50;56.60;;;;;;4993301;28;20446;-69
2022/08/14 02:10:09;;;;;;;9.40;7.03;;;20.40;56.50;;;;;;4998689;28;20034;-71
2022/08/14 02:12:35;;;;;;;13.60;7.55;;;20.40;56.60;;;;;;5000955;28;20050;-69
2022/08/14 02:15:02;;;;;;;12.02;8.40;;;20.40;56.80;;;;;;5002933;28;20096;-70
2022/08/14 02:17:28;;;;;;;9.27;7.57;;;20.40;56.20;;;;;;4991257;28;20062;-72
2022/08/14 02:19:54;;;;;;;9.63;7.82;;;20.40;56.40;;;;;;4999713;28;20061;-70
2022/08/14 02:22:20;;;;;;;10.35;7.78;;;20.40;56.20;;;;;;4997705;28;20121;-69
2022/08/14 02:24:46;;;;;;;10.35;8.50;;;20.40;56.00;;;;;;4986868;28;20416;-69
2022/08/14 02:27:11;;;;;;;10.68;8.73;;;20.30;56.10;;;;;;4997721;28;20662;-70
2022/08/14 02:29:39;;;;;;;11.93;8.05;;;20.30;55.90;;;;;;5002694;28;20029;-71
2022/08/14 02:32:05;;;;;;;10.57;7.93;;;20.20;56.10;;;;;;5000869;28;20030;-69
2022/08/14 02:34:33;;;;;;;11.27;8.27;;;20.20;56.50;;;;;;5002783;28;20030;-69
2022/08/14 02:37:02;;;;;;;8.73;7.22;;;20.20;56.40;;;;;;4996423;28;20046;-70
2022/08/14 02:39:29;;;;;;;11.88;8.55;;;20.20;56.20;;;;;;5007257;28;20113;-69
2022/08/14 02:41:55;;;;;;;11.52;8.32;;;20.10;56.30;;;;;;5005288;28;20057;-69
2022/08/14 02:44:22;;;;;;;11.15;8.20;;;20.10;56.40;;;;;;5001453;28;21840;-69
2022/08/14 02:46:49;;;;;;;11.68;8.48;;;20.00;56.50;;;;;;5011776;28;20457;-71
2022/08/14 02:49:15;;;;;;;11.52;8.73;;;20.00;56.60;;;;;;5012104;28;20033;-69
2022/08/14 02:51:41;;;;;;;13.00;8.98;;;19.90;56.80;;;;;;5006191;28;20089;-70
2022/08/14 02:54:08;;;;;;;12.07;8.10;;;19.90;56.80;;;;;;5018043;28;20504;-69
2022/08/14 02:56:37;;;;;;;10.27;8.70;;;19.80;57.10;;;;;;5008881;28;20389;-70
2022/08/14 02:59:06;;;;;;;9.93;7.72;;;19.80;57.20;;;;;;5005393;28;20064;-71
2022/08/14 03:01:33;;;;;;;11.77;8.63;;;19.80;57.40;;;;;;4994926;28;20026;-69
2022/08/14 03:03:59;;;;;;;10.00;8.38;;;19.80;57.30;;;;;;4996543;28;20205;-70
2022/08/14 03:06:24;;;;;;;11.20;7.78;;;19.80;57.30;;;;;;5000999;28;20458;-73
2022/08/14 03:08:52;;;;;;;10.60;7.72;;;19.80;57.40;;;;;;5005006;28;20125;-69
2022/08/14 03:11:20;;;;;;;10.20;9.10;;;19.80;57.50;;;;;;5011080;28;20057;-68
2022/08/14 03:13:50;;;;;;;11.60;8.85;;;19.70;57.50;;;;;;4996687;28;20314;-70
2022/08/14 03:16:25;;;;;;;12.55;8.90;;;19.70;57.50;;;;;;4998623;28;20026;-70
2022/08/14 03:18:53;;;;;;;14.60;9.25;;;19.60;57.70;;;;;;5005147;28;20065;-69
2022/08/14 03:21:21;;;;;;;12.77;10.02;;;19.60;58.00;;;;;;5006307;28;20109;-69
2022/08/14 03:23:49;;;;;;;9.40;8.40;;;19.50;58.10;;;;;;5000644;28;20041;-69
2022/08/14 03:26:18;;;;;;;9.77;7.97;;;19.50;58.20;;;;;;4999693;28;20029;-68
2022/08/14 03:28:47;;;;;;;12.10;9.07;;;19.50;58.60;;;;;;4996783;28;20033;-71
2022/08/14 03:31:13;;;;;;;11.10;8.30;;;19.50;58.30;;;;;;5010246;28;20092;-68
2022/08/14 03:33:40;;;;;;;10.45;8.20;;;19.30;58.70;;;;;;5007845;28;20041;-69
2022/08/14 03:36:11;;;;;;;10.15;7.97;;;19.30;58.70;;;;;;5000732;28;20719;-70
2022/08/14 03:38:41;;;;;;;10.45;8.38;;;19.20;59.10;;;;;;4998202;28;20495;-70
2022/08/14 03:41:18;;;;;;;9.77;8.13;;;19.20;59.30;;;;;;4997913;28;20117;-70
2022/08/14 03:43:45;;;;;;;12.55;8.50;;;19.10;59.60;;;;;;5002809;28;20108;-70
2022/08/14 03:46:12;;;;;;;10.57;9.00;;;19.10;59.30;;;;;;5000086;28;20454;-70
2022/08/14 03:48:39;;;;;;;11.55;8.70;;;19.10;59.10;;;;;;4991405;28;20025;-72
2022/08/14 03:51:07;;;;;;;9.63;8.63;;;19.10;59.50;;;;;;4996357;28;20030;-70
2022/08/14 03:53:37;;;;;;;10.15;8.48;;;19.00;59.50;;;;;;5009326;28;20449;-69
2022/08/14 03:56:11;;;;;;;13.32;8.40;;;19.00;59.60;;;;;;5008827;28;20029;-71
2022/08/14 03:58:38;;;;;;;11.65;9.05;;;18.90;59.90;;;;;;5001757;28;20096;-70
2022/08/14 04:01:04;;;;;;;9.88;8.40;;;18.90;59.90;;;;;;5004529;28;20072;-71
2022/08/14 04:03:30;;;;;;;14.73;8.45;;;18.90;60.10;;;;;;5005148;28;20069;-70
2022/08/14 04:05:56;;;;;;;12.65;9.32;;;18.90;60.20;;;;;;5010350;28;20113;-70
2022/08/14 04:08:22;;;;;;;12.40;9.15;;;18.90;60.30;;;;;;5007154;28;20119;-69
2022/08/14 04:10:47;;;;;;;12.55;9.38;;;18.90;60.30;;;;;;5005776;28;20042;-70
2022/08/14 04:13:17;;;;;;;10.18;8.65;;;18.90;60.30;;;;;;5005751;28;20036;-70
2022/08/14 04:15:44;;;;;;;11.88;9.23;;;18.90;60.30;;;;;;4999875;28;20040;-69
2022/08/14 04:18:10;;;;;;;10.60;9.13;;;18.90;60.40;;;;;;5008708;28;20042;-71
2022/08/14 04:20:38;;;;;;;10.65;8.80;;;18.90;60.30;;;;;;5007038;28;20034;-68
2022/08/14 04:23:05;;;;;;;12.15;9.80;;;18.90;60.50;;;;;;5000378;28;20113;-68
2022/08/14 04:25:32;;;;;;;12.43;9.13;;;19.00;60.30;;;;;;5008740;28;20300;-69
2022/08/14 04:27:59;;;;;;;10.95;8.88;;;19.00;60.20;;;;;;5010917;28;20068;-70
2022/08/14 04:30:27;;;;;;;10.77;9.68;;;19.00;60.30;;;;;;5012809;28;20041;-69
2022/08/14 04:32:54;;;;;;;14.38;9.45;;;18.90;60.40;;;;;;5007026;28;20033;-68
2022/08/14 04:35:20;;;;;;;12.40;9.80;;;18.80;60.70;;;;;;4999613;28;20445;-68
2022/08/14 04:45:58;;;;;;;10.15;8.23;;;18.90;61.10;;;;;;5003418;28;20036;-70
2022/08/14 04:48:26;;;;;;;10.50;9.02;;;19.00;60.70;;;;;;5006206;28;20037;-69
2022/08/14 04:50:52;;;;;;;11.43;9.65;;;19.00;60.60;;;;;;5004160;28;20077;-70
2022/08/14 04:53:21;;;;;;;13.20;9.45;;;19.00;60.60;;;;;;5007963;28;20034;-69
2022/08/14 04:55:49;;;;;;;11.43;8.27;;;19.00;60.50;;;;;;5013786;28;20501;-68
2022/08/14 04:58:26;;;;;;;21.40;8.95;;;19.00;60.60;;;;;;5007705;28;20441;-68
2022/08/14 05:00:53;;;;;;;13.70;9.90;;;19.00;60.80;;;;;;5039196;28;20105;-70
2022/08/14 05:03:20;;;;;;;9.57;8.05;;;19.10;60.90;;;;;;5013648;28;20472;-69
2022/08/14 05:05:49;;;;;;;11.50;8.90;;;19.10;60.80;;;;;;5007491;28;20144;-69
2022/08/14 05:08:16;;;;;;;12.63;8.70;;;19.10;60.90;;;;;;5007875;28;20473;-69
2022/08/14 05:10:44;;;;;;;13.55;9.10;;;19.10;60.80;;;;;;4999737;28;20039;-70
2022/08/14 05:13:12;;;;;;;14.35;8.45;;;19.10;60.80;;;;;;5008651;28;20029;-69
2022/08/14 05:15:40;;;;;;;13.40;8.93;;;19.10;61.00;;;;;;5005498;28;20034;-70
2022/08/14 05:18:13;;;;;;;13.02;9.80;;;19.10;61.40;;;;;;5015598;28;20084;-70
2022/08/14 05:20:42;;;;;;;10.52;8.07;;;19.00;61.40;;;;;;4993059;28;20066;-69
2022/08/14 05:23:09;;;;;;;11.65;8.15;;;19.10;61.40;;;;;;5002045;28;20160;-71
2022/08/14 05:25:35;;;;;;;11.38;9.43;;;19.20;61.40;;;;;;5005470;28;20042;-70
2022/08/14 05:28:12;;;;;;;12.95;8.80;;;19.20;61.50;;;;;;5003574;28;20046;-70
2022/08/14 05:30:38;;;;;;;10.75;8.13;;;19.30;61.40;;;;;;5004601;28;20038;-72
2022/08/14 05:33:05;;;;;;;25.33;11.13;;;19.30;61.50;;;;;;4998573;28;20026;-72
2022/08/14 05:35:31;;;;;;;15.45;8.80;;;19.30;61.20;;;;;;5006733;28;20095;-70
2022/08/14 05:37:58;;;;;;;11.23;8.82;;;19.40;61.00;;;;;;5002521;28;20490;-69
2022/08/14 05:40:24;;;;;;;11.05;8.70;;;19.40;60.90;;;;;;5004705;28;20034;-70
2022/08/14 05:42:50;;;;;;;12.60;9.00;;;19.30;60.80;;;;;;5004535;28;20031;-70
2022/08/14 05:45:16;;;;;;;10.55;8.43;;;19.40;60.90;;;;;;5002079;28;20341;-69
2022/08/14 05:47:41;;;;;;;10.50;7.60;;;19.50;60.60;;;;;;5002265;28;20046;-71
2022/08/14 05:50:12;;;;;;;11.73;9.30;;;19.40;60.70;;;;;;5005410;28;20034;-70
2022/08/14 05:52:38;;;;;;;13.65;9.75;;;19.40;60.70;;;;;;5002806;28;20131;-70
2022/08/14 05:55:06;;;;;;;10.80;8.93;;;19.30;61.30;;;;;;5002684;28;20525;-69
2022/08/14 05:57:32;;;;;;;14.45;8.80;;;19.50;61.10;;;;;;5001970;28;20054;-70
2022/08/14 05:59:58;;;;;;;11.82;8.82;;;19.50;60.70;;;;;;5008012;28;20030;-70
2022/08/14 06:02:23;;;;;;;12.05;7.97;;;19.50;60.70;;;;;;5003628;28;20046;-70
2022/08/14 06:04:49;;;;;;;12.98;9.13;;;19.60;60.20;;;;;;5011595;28;20072;-69
2022/08/14 06:07:15;;;;;;;9.35;7.88;;;19.70;60.00;;;;;;5010636;28;20034;-69
2022/08/14 06:09:41;;;;;;;12.68;8.02;;;19.80;59.70;;;;;;4999482;28;20046;-69
2022/08/14 06:12:09;;;;;;;10.32;7.22;;;19.80;59.60;;;;;;5006647;28;20482;-69
2022/08/14 06:14:36;;;;;;;8.60;7.45;;;20.00;59.50;;;;;;5006902;28;20029;-68
2022/08/14 06:17:02;;;;;;;11.90;7.70;;;20.20;59.30;;;;;;5002187;28;20145;-69
2022/08/14 06:19:28;;;;;;;9.00;7.20;;;20.50;58.60;;;;;;5000275;28;20042;-69
2022/08/14 06:21:53;;;;;;;11.50;7.90;;;20.60;57.80;;;;;;5003950;28;20041;-68
2022/08/14 06:24:19;;;;;;;11.70;8.27;;;20.70;57.80;;;;;;5010369;28;20074;-70
2022/08/14 06:26:46;;;;;;;11.80;8.02;;;20.80;57.80;;;;;;4991319;28;20412;-69
2022/08/14 06:29:11;;;;;;;9.65;7.22;;;21.10;56.70;;;;;;4996259;28;20058;-69
2022/08/14 06:31:38;;;;;;;12.00;7.20;;;21.20;56.30;;;;;;4999262;28;20061;-70
2022/08/14 06:34:03;;;;;;;10.20;7.22;;;21.50;56.00;;;;;;4995427;28;20095;-70
2022/08/14 06:36:29;;;;;;;8.65;6.32;;;21.70;55.30;;;;;;4998067;28;20108;-70
2022/08/14 06:38:55;;;;;;;9.13;7.47;;;21.80;54.90;;;;;;5032709;28;20366;-70
2022/08/14 06:41:22;;;;;;;8.57;6.10;;;22.00;54.50;;;;;;4996484;28;20042;-69
2022/08/14 06:43:48;;;;;;;10.05;6.38;;;22.10;55.10;;;;;;4994570;28;20038;-72
2022/08/14 06:46:13;;;;;;;10.00;6.32;;;22.40;55.00;;;;;;5003988;28;20034;-69
2022/08/14 06:48:39;;;;;;;10.63;7.15;;;22.60;54.00;;;;;;5000055;28;20393;-70
2022/08/14 06:51:05;;;;;;;14.27;6.65;;;22.80;53.20;;;;;;5020474;28;20508;-70
2022/08/14 06:53:31;;;;;;;10.52;6.00;;;22.90;52.80;;;;;;5003782;28;20037;-72
2022/08/14 06:55:57;;;;;;;12.32;6.75;;;23.10;52.40;;;;;;4995458;28;20462;-70
2022/08/14 06:58:22;;;;;;;12.55;7.50;;;23.50;51.70;;;;;;4998580;28;20052;-72
2022/08/14 07:06:17;;;;;;;8.00;5.70;;;24.10;50.40;;;;;;4991407;28;20389;-69
2022/08/14 07:08:43;;;;;;;8.82;5.28;;;24.50;49.90;;;;;;4993476;28;20022;-68
2022/08/14 07:11:10;;;;;;;10.10;5.22;;;24.80;48.40;;;;;;4990960;28;20072;-70
2022/08/14 07:13:36;;;;;;;8.63;5.10;;;25.00;47.50;;;;;;4997008;28;20419;-72
2022/08/14 07:16:02;;;;;;;9.45;4.85;;;25.10;45.90;;;;;;4998501;28;20046;-70
2022/08/14 07:18:29;;;;;;;8.40;5.07;;;25.10;46.10;;;;;;4999125;28;20045;-72
2022/08/14 07:20:57;;;;;;;9.02;4.82;;;24.90;46.00;;;;;;5000854;28;20131;-71
2022/08/14 07:23:24;;;;;;;8.57;4.22;;;24.90;45.90;;;;;;4996185;28;20039;-69
2022/08/14 07:25:52;;;;;;;7.22;4.25;;;24.90;46.70;;;;;;4997521;28;20601;-72
2022/08/14 07:28:24;;;;;;;11.68;4.18;;;24.90;46.50;;;;;;5001831;28;20120;-69
2022/08/14 07:30:55;;;;;;;7.30;4.13;;;24.90;46.10;;;;;;5032910;28;20489;-70
2022/08/14 07:33:21;;;;;;;12.68;4.40;;;24.80;46.20;;;;;;5001655;28;20034;-69
2022/08/14 07:35:46;;;;;;;13.13;5.10;;;24.80;46.30;;;;;;4997856;28;20038;-73
2022/08/14 07:38:19;;;;;;;13.02;4.55;;;24.70;46.40;;;;;;4996901;28;20124;-69
2022/08/14 07:40:45;;;;;;;10.43;4.00;;;24.60;47.00;;;;;;4997896;28;20470;-69
2022/08/14 07:43:12;;;;;;;7.18;3.60;;;24.60;46.80;;;;;;4996437;28;20473;-70
2022/08/14 07:45:39;;;;;;;12.13;4.20;;;24.60;47.60;;;;;;4998028;28;20096;-70
2022/08/14 07:48:05;;;;;;;10.65;4.03;;;24.80;48.10;;;;;;4997456;28;20125;-70
2022/08/14 07:50:31;;;;;;;11.57;3.83;;;25.10;46.50;;;;;;5028065;28;20536;-71
2022/08/14 07:52:58;;;;;;;7.57;3.55;;;25.50;45.60;;;;;;4991114;28;20053;-70
2022/08/14 07:55:24;;;;;;;9.75;3.88;;;25.90;44.50;;;;;;4992876;28;20068;-70
2022/08/14 07:57:50;;;;;;;12.52;3.42;;;26.00;43.80;;;;;;4995343;28;20034;-70
2022/08/14 08:00:18;;;;;;;12.10;3.80;;;26.10;43.90;;;;;;4992368;28;20041;-72
2022/08/14 08:02:46;;;;;;;10.82;3.65;;;26.10;43.50;;;;;;4993620;28;20034;-72
2022/08/14 08:05:13;;;;;;;8.70;3.47;;;26.20;42.90;;;;;;4996914;28;20041;-71
2022/08/14 08:07:41;;;;;;;7.00;3.22;;;26.20;42.90;;;;;;5019198;28;20054;-70
2022/08/14 08:10:31;;;;;;;9.80;3.22;;;26.30;43.20;;;;;;4979959;28;20223;-72
2022/08/14 08:13:11;;;;;;;6.70;3.15;;;26.50;43.00;;;;;;4976359;28;20046;-71
2022/08/14 08:15:40;;;;;;;9.02;3.25;;;26.60;42.00;;;;;;4970952;28;20034;-71
2022/08/14 08:18:08;;;;;;;7.70;2.83;;;26.70;42.70;;;;;;4973926;28;20039;-72
2022/08/14 08:20:45;;;;;;;5.05;3.10;;;27.00;42.40;;;;;;4973469;28;20043;-72
2022/08/14 08:23:12;;;;;;;7.60;3.00;;;27.10;41.40;;;;;;4974531;28;20054;-71
2022/08/14 08:25:40;;;;;;;5.70;3.42;;;27.20;41.10;;;;;;4979365;28;20392;-73
2022/08/14 08:28:10;;;;;;;5.97;3.40;;;27.20;40.70;;;;;;4970596;28;20483;-71
2022/08/14 08:30:37;;;;;;;6.80;3.08;;;27.30;41.50;;;;;;4977900;28;20509;-71
2022/08/14 08:33:04;;;;;;;5.50;3.25;;;27.30;40.60;;;;;;4972886;28;20034;-70
2022/08/14 08:35:34;;;;;;;7.43;3.00;;;27.30;41.10;;;;;;4979115;28;20430;-70
2022/08/14 08:38:06;;;;;;;6.28;3.28;;;27.50;40.20;;;;;;4975433;28;20043;-71
2022/08/14 08:40:35;;;;;;;5.88;3.22;;;27.50;39.60;;;;;;4977910;28;20062;-70
2022/08/14 08:43:08;;;;;;;6.03;3.20;;;27.70;39.60;;;;;;4973312;28;20533;-70
2022/08/14 08:45:35;;;;;;;9.23;3.30;;;28.00;39.60;;;;;;4986446;28;20053;-71
2022/08/14 08:48:02;;;;;;;6.35;3.10;;;28.30;39.00;;;;;;4977149;28;20341;-71
2022/08/14 08:50:38;;;;;;;6.50;2.60;;;28.40;38.50;;;;;;4980131;28;20053;-71
2022/08/14 08:53:09;;;;;;;7.72;3.25;;;28.40;38.30;;;;;;4982170;28;20038;-70
2022/08/14 08:55:39;;;;;;;9.43;3.85;;;28.30;38.40;;;;;;4983257;28;20092;-72
2022/08/14 08:58:08;;;;;;;7.68;3.10;;;28.40;39.00;;;;;;4979403;28;20931;-70
2022/08/14 09:00:37;;;;;;;5.30;2.90;;;28.60;38.10;;;;;;4984540;28;20042;-70
2022/08/14 09:03:11;;;;;;;7.25;3.55;;;29.00;37.10;;;;;;4980692;28;20038;-71
2022/08/14 09:05:58;;;;;;;8.98;3.13;;;29.30;36.20;;;;;;4979530;28;20216;-71
2022/08/14 09:08:29;;;;;;;5.70;3.08;;;29.40;35.70;;;;;;4976690;28;20035;-72
2022/08/14 09:10:56;;;;;;;6.07;3.10;;;29.80;35.20;;;;;;4981439;28;20034;-71
2022/08/14 09:13:25;;;;;;;6.35;3.10;;;30.00;34.50;;;;;;4980258;28;20042;-70
2022/08/14 09:15:52;;;;;;;8.50;3.45;;;30.10;34.20;;;;;;5008700;28;20149;-70
2022/08/14 09:18:23;;;;;;;9.82;3.03;;;30.20;34.30;;;;;;4978617;28;20404;-71
2022/08/14 09:20:52;;;;;;;8.10;3.78;;;30.50;33.60;;;;;;4971390;28;20121;-71
2022/08/14 09:23:17;;;;;;;10.57;3.10;;;30.60;33.70;;;;;;4978189;28;20053;-70
2022/08/14 09:25:46;;;;;;;9.23;3.20;;;30.70;33.50;;;;;;4974904;28;20066;-70
2022/08/14 09:28:13;;;;;;;8.93;3.20;;;31.00;33.80;;;;;;4976924;28;20077;-70
2022/08/14 09:30:47;;;;;;;5.07;3.00;;;30.90;32.80;;;;;;4971565;28;20085;-70
2022/08/14 09:33:39;;;;;;;7.65;3.17;;;30.80;32.70;;;;;;4974755;28;20486;-71
2022/08/14 09:36:26;;;;;;;7.15;3.42;;;30.70;33.40;;;;;;4973291;28;20038;-71
2022/08/14 09:39:30;;;;;;;6.65;3.25;;;30.70;33.30;;;;;;4972744;28;20097;-71
2022/08/14 09:42:33;;;;;;;7.13;3.25;;;30.60;33.90;;;;;;4973673;28;20045;-71
2022/08/14 09:45:14;;;;;;;6.93;3.25;;;30.60;34.20;;;;;;4977830;28;20038;-72
2022/08/14 09:47:49;;;;;;;5.28;3.15;;;30.50;33.40;;;;;;4979910;28;20055;-71
2022/08/14 09:50:29;;;;;;;5.50;3.20;;;30.40;33.50;;;;;;4980276;28;20039;-71
2022/08/14 09:53:04;;;;;;;4.28;2.85;;;30.50;33.60;;;;;;4984742;28;20050;-71
2022/08/14 09:55:34;;;;;;;5.22;2.75;;;30.50;33.30;;;;;;4977951;28;20371;-71
2022/08/14 09:58:10;;;;;;;5.47;3.03;;;30.20;33.20;;;;;;4972259;28;20046;-73
2022/08/14 10:00:48;;;;;;;5.25;3.15;;;30.20;33.50;;;;;;4977445;28;20035;-71
2022/08/14 10:03:29;;;;;;;6.68;2.83;;;30.30;33.80;;;;;;4974613;28;20061;-71
2022/08/14 10:06:11;;;;;;;7.75;3.05;;;30.10;33.60;;;;;;4978660;28;20050;-71
2022/08/14 10:08:51;;;;;;;4.07;2.80;;;29.90;33.90;;;;;;4981673;28;20050;-70
2022/08/14 10:11:26;;;;;;;5.35;2.80;;;30.00;34.40;;;;;;4973918;28;20054;-70
2022/08/14 10:14:09;;;;;;;9.75;3.15;;;30.10;34.30;;;;;;4976257;28;20495;-71
2022/08/14 10:16:41;;;;;;;6.53;2.70;;;30.10;34.50;;;;;;4992480;28;20085;-70
2022/08/14 10:19:20;;;;;;;5.00;3.10;;;30.10;34.40;;;;;;4992565;28;20041;-73
2022/08/14 10:22:01;;;;;;;4.65;2.78;;;30.20;34.60;;;;;;5001918;28;20504;-71
2022/08/14 10:24:32;;;;;;;7.50;2.78;;;30.30;34.60;;;;;;5001938;28;20088;-71
2022/08/14 10:27:00;;;;;;;5.25;2.78;;;30.40;34.70;;;;;;4996998;28;20491;-71
2022/08/14 10:29:36;;;;;;;6.35;2.72;;;30.60;34.00;;;;;;5001275;28;20046;-74
2022/08/14 10:32:03;;;;;;;5.60;2.55;;;30.60;32.70;;;;;;5001997;28;20030;-73
2022/08/14 10:34:38;;;;;;;5.25;2.47;;;30.60;32.70;;;;;;5000020;28;20128;-73
2022/08/14 10:37:12;;;;;;;5.55;2.40;;;30.70;33.00;;;;;;4995979;28;20337;-72
2022/08/14 10:39:42;;;;;;;4.38;2.65;;;30.90;33.00;;;;;;5003773;28;20049;-72
2022/08/14 10:42:11;;;;;;;4.63;2.60;;;30.90;32.20;;;;;;5006475;28;20045;-72
2022/08/14 10:44:40;;;;;;;3.90;2.40;;;31.00;31.10;;;;;;5014729;28;20060;-72
2022/08/14 10:47:10;;;;;;;4.40;2.55;;;31.00;30.80;;;;;;4994707;28;20046;-73
2022/08/14 10:49:48;;;;;;;6.95;2.50;;;31.10;30.40;;;;;;4973904;28;20065;-72
2022/08/14 10:52:23;;;;;;;5.95;2.20;;;31.20;30.20;;;;;;4980250;28;20498;-73
2022/08/14 10:54:50;;;;;;;4.90;2.30;;;31.20;28.60;;;;;;4985124;28;20712;-72
2022/08/14 10:57:23;;;;;;;3.80;2.03;;;31.40;28.20;;;;;;4980068;28;20133;-73
2022/08/14 10:59:54;;;;;;;3.42;2.00;;;31.60;28.50;;;;;;4990800;28;20035;-72
2022/08/14 11:02:32;;;;;;;4.25;2.10;;;32.00;27.50;;;;;;4982566;28;20089;-72
2022/08/14 11:05:06;;;;;;;3.80;2.30;;;32.20;27.10;;;;;;4971798;28;21207;-70
2022/08/14 11:07:33;;;;;;;5.35;2.22;;;32.60;26.40;;;;;;4977507;28;20043;-71
2022/08/14 11:10:03;;;;;;;6.15;2.08;;;32.80;26.00;;;;;;4977160;28;20063;-72
2022/08/14 11:12:50;;;;;;;4.80;2.33;;;32.80;25.80;;;;;;4975698;28;20180;-72
2022/08/14 11:15:22;;;;;;;6.75;4.05;;;32.90;25.80;;;;;;4994659;28;20441;-71
2022/08/14 11:17:49;;;;;;;4.60;2.30;;;33.00;25.50;;;;;;4996485;28;20038;-71
2022/08/14 11:20:23;;;;;;;4.07;2.00;;;33.20;25.60;;;;;;4993463;28;20507;-71
2022/08/14 11:22:56;;;;;;;;;;;33.40;25.20;;;;;;4993622;28;20495;-71
2022/08/14 11:25:23;;;;;;;3.43;1.97;;;33.60;25.40;;;;;;4998298;28;19931;-72
2022/08/14 11:27:52;;;;;;;2.70;2.03;;;33.50;24.50;;;;;;5010376;28;20540;-70
2022/08/14 11:30:24;;;;;;;4.60;1.83;;;33.50;23.90;;;;;;4994841;28;20552;-71
2022/08/14 11:32:50;;;;;;;2.90;2.00;;;33.10;24.50;;;;;;4995267;28;20076;-71
2022/08/14 11:35:20;;;;;;;2.95;1.90;;;32.80;24.90;;;;;;4992012;28;20030;-72
2022/08/14 11:37:51;;;;;;;5.13;1.88;;;32.60;25.10;;;;;;4994921;28;20148;-73
2022/08/14 11:40:17;;;;;;;4.38;1.90;;;32.50;25.20;;;;;;4995635;28;20034;-71
2022/08/14 11:42:48;;;;;;;4.80;2.10;;;32.30;25.30;;;;;;5018349;28;20031;-71
2022/08/14 11:45:15;;;;;;;4.07;2.00;;;32.20;25.40;;;;;;4980205;28;20030;-70
2022/08/14 11:47:41;;;;;;;3.67;2.58;;;32.30;25.70;;;;;;4975473;28;20088;-71
2022/08/14 11:50:25;;;;;;;6.63;2.60;;;32.40;25.00;;;;;;4971977;28;20047;-72
2022/08/14 11:52:52;;;;;;;5.30;2.20;;;32.40;24.90;;;;;;4972226;28;20121;-71
2022/08/14 11:55:18;;;;;;;5.85;2.45;;;32.60;25.00;;;;;;4978106;28;20056;-70
2022/08/14 11:57:45;;;;;;;4.03;2.05;;;32.80;24.90;;;;;;4966561;28;20039;-71
2022/08/14 12:00:15;;;;;;;4.00;2.10;;;33.00;24.50;;;;;;4968325;28;20018;-73
2022/08/14 12:02:59;;;;;;;3.00;2.00;;;32.80;24.50;;;;;;4966481;28;20377;-71
2022/08/14 12:05:38;;;;;;;3.33;1.73;;;33.00;24.60;;;;;;4968843;28;20056;-73
2022/08/14 12:08:08;;;;;;;4.13;2.00;;;33.00;25.10;;;;;;4968926;28;20050;-72
2022/08/14 12:10:40;;;;;;;4.05;1.92;;;33.10;24.80;;;;;;4971036;28;20454;-71
2022/08/14 12:13:18;;;;;;;5.03;2.00;;;33.40;25.70;;;;;;4980729;28;20121;-72
2022/08/14 12:15:45;;;;;;;5.25;2.10;;;33.50;24.00;;;;;;4987811;28;20072;-72
2022/08/14 12:18:12;;;;;;;5.90;2.08;;;33.60;23.50;;;;;;4981300;28;20108;-72
2022/08/14 12:20:43;;;;;;;3.00;1.80;;;33.70;24.10;;;;;;4982765;28;20057;-73
2022/08/14 12:23:23;;;;;;;3.33;1.80;;;33.80;24.10;;;;;;4977631;28;20200;-72
2022/08/14 12:25:50;;;;;;;4.45;2.25;;;34.00;23.80;;;;;;4970576;28;20445;-75
2022/08/14 12:28:16;;;;;;;3.38;1.90;;;34.00;23.10;;;;;;4968227;28;20031;-74
2022/08/14 12:30:44;;;;;;;4.50;1.83;;;34.20;23.30;;;;;;4981847;28;20033;-73
2022/08/14 12:33:28;;;;;;;3.80;1.80;;;34.50;23.10;;;;;;4969497;28;20027;-72
2022/08/14 12:36:00;;;;;;;3.50;2.15;;;34.60;22.70;;;;;;4977715;28;20039;-72
2022/08/14 12:38:44;;;;;;;3.47;1.80;;;34.70;22.50;;;;;;4992768;28;20134;-72
2022/08/14 12:41:19;;;;;;;2.22;1.83;;;34.30;23.30;;;;;;4971364;28;20034;-72
2022/08/14 12:43:55;;;;;;;3.63;2.05;;;34.30;23.30;;;;;;4977399;28;20059;-72
2022/08/14 12:46:32;;;;;;;2.85;1.92;;;34.40;22.70;;;;;;4974834;28;20395;-72
2022/08/14 12:49:05;;;;;;;4.13;2.25;;;34.30;23.00;;;;;;4974928;28;20043;-73
2022/08/14 12:51:32;;;;;;;8.07;2.53;;;34.50;23.70;;;;;;4989947;28;20385;-72
2022/08/14 12:53:59;;;;;;;3.65;1.90;;;34.50;23.30;;;;;;4990811;28;20507;-71
2022/08/14 12:56:28;;;;;;;5.43;2.28;;;34.50;23.20;;;;;;4985803;28;20027;-72
2022/08/14 12:58:57;;;;;;;3.58;2.15;;;34.50;23.40;;;;;;4990033;28;20041;-72
2022/08/14 13:01:27;;;;;;;4.18;2.30;;;34.60;22.90;;;;;;5014276;28;20146;-73
2022/08/14 13:04:09;;;;;;;5.90;2.38;;;34.50;22.60;;;;;;4989932;28;20041;-72
2022/08/14 13:06:36;;;;;;;4.15;2.40;;;34.60;22.80;;;;;;4989803;28;20077;-72
2022/08/14 13:09:06;;;;;;;4.72;2.38;;;34.70;22.60;;;;;;4987552;28;20042;-74
2022/08/14 13:11:38;;;;;;;7.80;2.33;;;35.00;23.10;;;;;;4987992;28;20072;-72
2022/08/14 13:14:04;;;;;;;4.95;2.30;;;35.00;22.70;;;;;;5002451;28;20019;-73